sensor_id;sensor_type;location;lat;lon;timestamp;P1;durP1;ratioP1;P2;durP2;ratioP2
33413;SDS011;60055;41.884;12.534;2022-07-29T00:01:24;25.98;;;6.43;;
33413;SDS011;60055;41.884;12.534;2022-07-29T00:03:53;16.95;;;5.65;;
33413;SDS011;60055;41.884;12.534;2022-07-29T00:06:18;18.98;;;5.47;;
33413;SDS011;60055;41.884;12.534;2022-07-29T00:08:45;20.63;;;4.78;;
33413;SDS011;60055;41.884;12.534;2022-07-29T00:11:11;17.75;;;4.95;;
33413;SDS011;60055;41.884;12.534;2022-07-29T00:13:37;17.83;;;4.75;;
33413;SDS011;60055;41.884;12.534;2022-07-29T00:16:03;21.55;;;5.00;;
33413;SDS011;60055;41.884;12.534;2022-07-29T00:18:29;22.05;;;5.40;;
33413;SDS011;60055;41.884;12.534;2022-07-29T00:20:54;21.02;;;5.97;;
33413;SDS011;60055;41.884;12.534;2022-07-29T00:23:20;24.13;;;5.70;;
33413;SDS011;60055;41.884;12.534;2022-07-29T00:25:46;24.98;;;6.15;;
33413;SDS011;60055;41.884;12.534;2022-07-29T00:28:11;20.98;;;5.97;;
33413;SDS011;60055;41.884;12.534;2022-07-29T00:30:37;22.83;;;5.78;;
33413;SDS011;60055;41.884;12.534;2022-07-29T00:33:03;30.70;;;5.68;;
33413;SDS011;60055;41.884;12.534;2022-07-29T00:35:28;22.02;;;5.65;;
33413;SDS011;60055;41.884;12.534;2022-07-29T00:38:15;16.60;;;5.10;;
33413;SDS011;60055;41.884;12.534;2022-07-29T00:40:43;19.48;;;4.60;;
33413;SDS011;60055;41.884;12.534;2022-07-29T00:43:11;15.73;;;4.50;;
33413;SDS011;60055;41.884;12.534;2022-07-29T00:45:38;14.73;;;4.50;;
33413;SDS011;60055;41.884;12.534;2022-07-29T00:48:04;17.52;;;4.30;;
33413;SDS011;60055;41.884;12.534;2022-07-29T00:50:31;19.38;;;4.63;;
33413;SDS011;60055;41.884;12.534;2022-07-29T00:52:58;18.55;;;4.85;;
33413;SDS011;60055;41.884;12.534;2022-07-29T00:55:24;23.00;;;5.22;;
33413;SDS011;60055;41.884;12.534;2022-07-29T00:57:49;16.05;;;4.60;;
33413;SDS011;60055;41.884;12.534;2022-07-29T01:00:19;14.80;;;4.80;;
33413;SDS011;60055;41.884;12.534;2022-07-29T01:02:47;19.02;;;4.78;;
33413;SDS011;60055;41.884;12.534;2022-07-29T01:05:13;16.17;;;5.00;;
33413;SDS011;60055;41.884;12.534;2022-07-29T01:07:41;18.70;;;4.95;;
33413;SDS011;60055;41.884;12.534;2022-07-29T01:10:07;14.50;;;4.50;;
33413;SDS011;60055;41.884;12.534;2022-07-29T01:12:35;14.05;;;4.55;;
33413;SDS011;60055;41.884;12.534;2022-07-29T01:15:03;16.83;;;4.93;;
33413;SDS011;60055;41.884;12.534;2022-07-29T01:23:40;20.42;;;4.90;;
33413;SDS011;60055;41.884;12.534;2022-07-29T01:26:41;19.02;;;5.15;;
33413;SDS011;60055;41.884;12.534;2022-07-29T01:32:24;12.40;;;5.07;;
33413;SDS011;60055;41.884;12.534;2022-07-29T01:39:57;14.93;;;4.85;;
33413;SDS011;60055;41.884;12.534;2022-07-29T01:45:18;14.85;;;4.40;;
33413;SDS011;60055;41.884;12.534;2022-07-29T01:48:12;13.95;;;4.57;;
33413;SDS011;60055;41.884;12.534;2022-07-29T01:50:48;13.68;;;4.35;;
33413;SDS011;60055;41.884;12.534;2022-07-29T01:53:21;16.30;;;4.63;;
33413;SDS011;60055;41.884;12.534;2022-07-29T01:55:51;12.77;;;4.43;;
33413;SDS011;60055;41.884;12.534;2022-07-29T01:58:22;14.48;;;4.13;;
33413;SDS011;60055;41.884;12.534;2022-07-29T02:00:49;19.85;;;4.47;;
33413;SDS011;60055;41.884;12.534;2022-07-29T02:03:16;10.95;;;4.60;;
33413;SDS011;60055;41.884;12.534;2022-07-29T02:05:45;17.55;;;4.47;;
33413;SDS011;60055;41.884;12.534;2022-07-29T02:08:13;13.70;;;4.28;;
33413;SDS011;60055;41.884;12.534;2022-07-29T02:10:40;15.15;;;4.50;;
33413;SDS011;60055;41.884;12.534;2022-07-29T02:13:07;12.90;;;4.35;;
33413;SDS011;60055;41.884;12.534;2022-07-29T02:15:39;15.77;;;4.13;;
33413;SDS011;60055;41.884;12.534;2022-07-29T02:18:08;15.25;;;4.20;;
33413;SDS011;60055;41.884;12.534;2022-07-29T02:20:39;17.27;;;4.43;;
33413;SDS011;60055;41.884;12.534;2022-07-29T02:23:07;16.92;;;4.30;;
33413;SDS011;60055;41.884;12.534;2022-07-29T02:25:37;13.70;;;4.22;;
33413;SDS011;60055;41.884;12.534;2022-07-29T02:28:05;20.23;;;4.82;;
33413;SDS011;60055;41.884;12.534;2022-07-29T02:30:31;15.52;;;4.05;;
33413;SDS011;60055;41.884;12.534;2022-07-29T02:32:57;16.05;;;4.07;;
33413;SDS011;60055;41.884;12.534;2022-07-29T02:35:25;9.70;;;3.97;;
33413;SDS011;60055;41.884;12.534;2022-07-29T02:37:51;17.95;;;4.30;;
33413;SDS011;60055;41.884;12.534;2022-07-29T02:40:37;14.88;;;4.78;;
33413;SDS011;60055;41.884;12.534;2022-07-29T02:43:05;14.45;;;4.57;;
33413;SDS011;60055;41.884;12.534;2022-07-29T02:45:33;12.52;;;4.38;;
33413;SDS011;60055;41.884;12.534;2022-07-29T02:48:00;11.50;;;4.55;;
33413;SDS011;60055;41.884;12.534;2022-07-29T02:50:34;13.98;;;4.80;;
33413;SDS011;60055;41.884;12.534;2022-07-29T02:53:11;13.25;;;4.55;;
33413;SDS011;60055;41.884;12.534;2022-07-29T02:55:45;14.07;;;5.20;;
33413;SDS011;60055;41.884;12.534;2022-07-29T02:58:27;16.17;;;4.95;;
33413;SDS011;60055;41.884;12.534;2022-07-29T03:00:56;15.95;;;5.20;;
33413;SDS011;60055;41.884;12.534;2022-07-29T03:03:25;15.30;;;4.80;;
33413;SDS011;60055;41.884;12.534;2022-07-29T03:06:01;13.05;;;5.32;;
33413;SDS011;60055;41.884;12.534;2022-07-29T03:08:28;16.55;;;4.95;;
33413;SDS011;60055;41.884;12.534;2022-07-29T03:10:55;23.88;;;6.03;;
33413;SDS011;60055;41.884;12.534;2022-07-29T03:13:21;16.75;;;5.10;;
33413;SDS011;60055;41.884;12.534;2022-07-29T03:15:47;20.10;;;5.72;;
33413;SDS011;60055;41.884;12.534;2022-07-29T03:18:13;15.30;;;5.30;;
33413;SDS011;60055;41.884;12.534;2022-07-29T03:20:40;18.67;;;5.70;;
33413;SDS011;60055;41.884;12.534;2022-07-29T03:23:06;20.25;;;6.32;;
33413;SDS011;60055;41.884;12.534;2022-07-29T03:25:33;18.25;;;5.70;;
33413;SDS011;60055;41.884;12.534;2022-07-29T03:27:59;19.17;;;5.53;;
33413;SDS011;60055;41.884;12.534;2022-07-29T03:30:25;18.58;;;5.70;;
33413;SDS011;60055;41.884;12.534;2022-07-29T03:32:52;19.20;;;5.90;;
33413;SDS011;60055;41.884;12.534;2022-07-29T03:35:18;16.58;;;5.45;;
33413;SDS011;60055;41.884;12.534;2022-07-29T03:37:45;16.27;;;5.45;;
33413;SDS011;60055;41.884;12.534;2022-07-29T03:40:11;19.77;;;5.38;;
33413;SDS011;60055;41.884;12.534;2022-07-29T03:42:43;19.88;;;5.53;;
33413;SDS011;60055;41.884;12.534;2022-07-29T03:45:11;16.83;;;5.35;;
33413;SDS011;60055;41.884;12.534;2022-07-29T03:47:42;19.77;;;4.78;;
33413;SDS011;60055;41.884;12.534;2022-07-29T03:50:12;16.75;;;4.95;;
33413;SDS011;60055;41.884;12.534;2022-07-29T03:52:40;17.58;;;5.15;;
33413;SDS011;60055;41.884;12.534;2022-07-29T03:55:06;13.60;;;4.32;;
33413;SDS011;60055;41.884;12.534;2022-07-29T03:57:33;19.25;;;5.05;;
33413;SDS011;60055;41.884;12.534;2022-07-29T04:00:01;14.98;;;5.30;;
33413;SDS011;60055;41.884;12.534;2022-07-29T04:02:28;18.65;;;5.45;;
33413;SDS011;60055;41.884;12.534;2022-07-29T04:04:54;19.08;;;4.95;;
33413;SDS011;60055;41.884;12.534;2022-07-29T04:07:20;17.80;;;5.38;;
33413;SDS011;60055;41.884;12.534;2022-07-29T04:09:46;14.70;;;5.45;;
33413;SDS011;60055;41.884;12.534;2022-07-29T04:12:11;18.95;;;5.38;;
33413;SDS011;60055;41.884;12.534;2022-07-29T04:14:37;14.98;;;5.03;;
33413;SDS011;60055;41.884;12.534;2022-07-29T04:17:03;16.67;;;5.18;;
33413;SDS011;60055;41.884;12.534;2022-07-29T04:19:29;11.77;;;4.78;;
33413;SDS011;60055;41.884;12.534;2022-07-29T04:22:00;15.90;;;6.18;;
33413;SDS011;60055;41.884;12.534;2022-07-29T04:24:26;16.85;;;6.50;;
33413;SDS011;60055;41.884;12.534;2022-07-29T04:26:52;20.98;;;6.63;;
33413;SDS011;60055;41.884;12.534;2022-07-29T04:29:17;19.70;;;6.72;;
33413;SDS011;60055;41.884;12.534;2022-07-29T04:31:43;20.63;;;6.85;;
33413;SDS011;60055;41.884;12.534;2022-07-29T04:34:09;20.13;;;6.93;;
33413;SDS011;60055;41.884;12.534;2022-07-29T04:36:35;18.83;;;6.50;;
33413;SDS011;60055;41.884;12.534;2022-07-29T04:39:01;18.23;;;6.60;;
33413;SDS011;60055;41.884;12.534;2022-07-29T04:41:27;15.70;;;5.72;;
33413;SDS011;60055;41.884;12.534;2022-07-29T04:43:53;15.65;;;5.50;;
33413;SDS011;60055;41.884;12.534;2022-07-29T04:46:19;16.30;;;6.38;;
33413;SDS011;60055;41.884;12.534;2022-07-29T04:48:45;23.65;;;6.53;;
33413;SDS011;60055;41.884;12.534;2022-07-29T04:51:11;19.23;;;6.50;;
33413;SDS011;60055;41.884;12.534;2022-07-29T04:53:37;17.38;;;5.88;;
33413;SDS011;60055;41.884;12.534;2022-07-29T04:56:03;17.27;;;5.45;;
33413;SDS011;60055;41.884;12.534;2022-07-29T04:58:29;18.02;;;5.15;;
33413;SDS011;60055;41.884;12.534;2022-07-29T05:00:55;19.70;;;6.38;;
33413;SDS011;60055;41.884;12.534;2022-07-29T05:03:20;12.55;;;4.75;;
33413;SDS011;60055;41.884;12.534;2022-07-29T05:05:47;17.15;;;5.60;;
33413;SDS011;60055;41.884;12.534;2022-07-29T05:08:13;15.55;;;4.95;;
33413;SDS011;60055;41.884;12.534;2022-07-29T05:10:39;19.08;;;4.70;;
33413;SDS011;60055;41.884;12.534;2022-07-29T05:13:05;14.15;;;5.38;;
33413;SDS011;60055;41.884;12.534;2022-07-29T05:15:32;13.30;;;4.88;;
33413;SDS011;60055;41.884;12.534;2022-07-29T05:18:01;13.27;;;4.80;;
33413;SDS011;60055;41.884;12.534;2022-07-29T05:20:28;11.40;;;4.10;;
33413;SDS011;60055;41.884;12.534;2022-07-29T05:22:56;15.15;;;4.30;;
33413;SDS011;60055;41.884;12.534;2022-07-29T05:25:23;14.95;;;4.53;;
33413;SDS011;60055;41.884;12.534;2022-07-29T05:27:49;14.30;;;4.20;;
33413;SDS011;60055;41.884;12.534;2022-07-29T05:30:15;17.00;;;4.13;;
33413;SDS011;60055;41.884;12.534;2022-07-29T05:32:41;15.40;;;4.60;;
33413;SDS011;60055;41.884;12.534;2022-07-29T05:35:07;13.30;;;4.53;;
33413;SDS011;60055;41.884;12.534;2022-07-29T05:37:33;15.43;;;4.28;;
33413;SDS011;60055;41.884;12.534;2022-07-29T05:40:02;17.13;;;4.20;;
33413;SDS011;60055;41.884;12.534;2022-07-29T05:42:28;12.23;;;4.22;;
33413;SDS011;60055;41.884;12.534;2022-07-29T05:44:54;11.60;;;3.90;;
33413;SDS011;60055;41.884;12.534;2022-07-29T05:47:20;14.48;;;3.80;;
33413;SDS011;60055;41.884;12.534;2022-07-29T05:49:47;16.85;;;3.80;;
33413;SDS011;60055;41.884;12.534;2022-07-29T05:52:13;17.73;;;4.15;;
33413;SDS011;60055;41.884;12.534;2022-07-29T05:54:40;14.65;;;3.72;;
33413;SDS011;60055;41.884;12.534;2022-07-29T05:57:06;14.73;;;4.05;;
33413;SDS011;60055;41.884;12.534;2022-07-29T05:59:35;15.52;;;4.47;;
33413;SDS011;60055;41.884;12.534;2022-07-29T06:02:01;13.27;;;3.90;;
33413;SDS011;60055;41.884;12.534;2022-07-29T06:04:27;19.17;;;4.25;;
33413;SDS011;60055;41.884;12.534;2022-07-29T06:06:52;15.05;;;4.38;;
33413;SDS011;60055;41.884;12.534;2022-07-29T06:09:18;12.85;;;3.70;;
33413;SDS011;60055;41.884;12.534;2022-07-29T06:11:44;16.10;;;4.18;;
33413;SDS011;60055;41.884;12.534;2022-07-29T06:14:10;17.40;;;4.45;;
33413;SDS011;60055;41.884;12.534;2022-07-29T06:16:38;23.45;;;4.60;;
33413;SDS011;60055;41.884;12.534;2022-07-29T06:19:04;17.05;;;3.88;;
33413;SDS011;60055;41.884;12.534;2022-07-29T06:21:29;22.40;;;4.20;;
33413;SDS011;60055;41.884;12.534;2022-07-29T06:23:55;21.63;;;4.47;;
33413;SDS011;60055;41.884;12.534;2022-07-29T06:26:21;20.35;;;4.50;;
33413;SDS011;60055;41.884;12.534;2022-07-29T06:28:46;17.08;;;4.13;;
33413;SDS011;60055;41.884;12.534;2022-07-29T06:31:12;12.02;;;3.83;;
33413;SDS011;60055;41.884;12.534;2022-07-29T06:33:38;12.45;;;3.70;;
33413;SDS011;60055;41.884;12.534;2022-07-29T06:36:04;12.23;;;3.80;;
33413;SDS011;60055;41.884;12.534;2022-07-29T06:38:30;15.32;;;3.90;;
33413;SDS011;60055;41.884;12.534;2022-07-29T06:40:57;14.98;;;4.00;;
33413;SDS011;60055;41.884;12.534;2022-07-29T06:43:38;16.30;;;3.70;;
33413;SDS011;60055;41.884;12.534;2022-07-29T06:46:09;13.77;;;4.00;;
33413;SDS011;60055;41.884;12.534;2022-07-29T06:48:37;21.65;;;3.80;;
33413;SDS011;60055;41.884;12.534;2022-07-29T06:51:04;17.88;;;3.78;;
33413;SDS011;60055;41.884;12.534;2022-07-29T06:53:31;16.55;;;4.20;;
33413;SDS011;60055;41.884;12.534;2022-07-29T06:55:58;14.82;;;3.42;;
33413;SDS011;60055;41.884;12.534;2022-07-29T06:58:25;16.83;;;3.40;;
33413;SDS011;60055;41.884;12.534;2022-07-29T07:00:51;13.07;;;3.75;;
33413;SDS011;60055;41.884;12.534;2022-07-29T07:03:17;17.48;;;3.50;;
33413;SDS011;60055;41.884;12.534;2022-07-29T07:05:44;12.73;;;3.65;;
33413;SDS011;60055;41.884;12.534;2022-07-29T07:08:12;12.20;;;3.65;;
33413;SDS011;60055;41.884;12.534;2022-07-29T07:10:38;12.65;;;3.45;;
33413;SDS011;60055;41.884;12.534;2022-07-29T07:13:04;14.98;;;3.08;;
33413;SDS011;60055;41.884;12.534;2022-07-29T07:15:30;19.60;;;3.28;;
33413;SDS011;60055;41.884;12.534;2022-07-29T07:17:56;15.73;;;3.40;;
33413;SDS011;60055;41.884;12.534;2022-07-29T07:20:22;13.82;;;3.25;;
33413;SDS011;60055;41.884;12.534;2022-07-29T07:22:48;14.00;;;3.17;;
33413;SDS011;60055;41.884;12.534;2022-07-29T07:25:14;16.15;;;3.10;;
33413;SDS011;60055;41.884;12.534;2022-07-29T07:27:40;13.93;;;2.97;;
33413;SDS011;60055;41.884;12.534;2022-07-29T07:30:06;21.02;;;3.85;;
33413;SDS011;60055;41.884;12.534;2022-07-29T07:32:33;16.48;;;3.35;;
33413;SDS011;60055;41.884;12.534;2022-07-29T07:35:06;9.48;;;3.35;;
33413;SDS011;60055;41.884;12.534;2022-07-29T07:37:33;13.77;;;3.05;;
33413;SDS011;60055;41.884;12.534;2022-07-29T07:39:59;14.10;;;3.20;;
33413;SDS011;60055;41.884;12.534;2022-07-29T07:42:26;13.20;;;3.22;;
33413;SDS011;60055;41.884;12.534;2022-07-29T07:44:52;9.68;;;2.88;;
33413;SDS011;60055;41.884;12.534;2022-07-29T07:47:18;11.20;;;2.95;;
33413;SDS011;60055;41.884;12.534;2022-07-29T07:49:45;12.88;;;3.28;;
33413;SDS011;60055;41.884;12.534;2022-07-29T07:52:12;18.05;;;3.30;;
33413;SDS011;60055;41.884;12.534;2022-07-29T07:54:38;9.98;;;3.30;;
33413;SDS011;60055;41.884;12.534;2022-07-29T07:57:04;13.63;;;3.30;;
33413;SDS011;60055;41.884;12.534;2022-07-29T07:59:29;12.63;;;3.20;;
33413;SDS011;60055;41.884;12.534;2022-07-29T08:01:55;18.48;;;4.93;;
33413;SDS011;60055;41.884;12.534;2022-07-29T08:04:20;12.80;;;3.33;;
33413;SDS011;60055;41.884;12.534;2022-07-29T08:06:46;21.10;;;4.22;;
33413;SDS011;60055;41.884;12.534;2022-07-29T08:09:14;11.45;;;3.67;;
33413;SDS011;60055;41.884;12.534;2022-07-29T08:11:40;16.77;;;4.75;;
33413;SDS011;60055;41.884;12.534;2022-07-29T08:14:05;11.95;;;3.53;;
33413;SDS011;60055;41.884;12.534;2022-07-29T08:16:31;13.32;;;3.58;;
33413;SDS011;60055;41.884;12.534;2022-07-29T08:18:57;10.93;;;3.20;;
33413;SDS011;60055;41.884;12.534;2022-07-29T08:21:23;14.90;;;3.17;;
33413;SDS011;60055;41.884;12.534;2022-07-29T08:23:49;11.00;;;3.05;;
33413;SDS011;60055;41.884;12.534;2022-07-29T08:26:18;12.60;;;3.25;;
33413;SDS011;60055;41.884;12.534;2022-07-29T08:28:44;11.23;;;4.38;;
33413;SDS011;60055;41.884;12.534;2022-07-29T08:31:13;12.70;;;2.70;;
33413;SDS011;60055;41.884;12.534;2022-07-29T08:33:42;11.25;;;3.08;;
33413;SDS011;60055;41.884;12.534;2022-07-29T08:36:09;11.50;;;3.92;;
33413;SDS011;60055;41.884;12.534;2022-07-29T08:38:34;10.18;;;3.25;;
33413;SDS011;60055;41.884;12.534;2022-07-29T08:41:00;13.18;;;3.78;;
33413;SDS011;60055;41.884;12.534;2022-07-29T08:43:27;10.07;;;3.33;;
33413;SDS011;60055;41.884;12.534;2022-07-29T08:45:53;10.45;;;2.80;;
33413;SDS011;60055;41.884;12.534;2022-07-29T08:48:21;8.43;;;3.00;;
33413;SDS011;60055;41.884;12.534;2022-07-29T08:50:48;6.95;;;2.67;;
33413;SDS011;60055;41.884;12.534;2022-07-29T08:53:18;11.85;;;3.70;;
33413;SDS011;60055;41.884;12.534;2022-07-29T08:55:48;10.88;;;3.17;;
33413;SDS011;60055;41.884;12.534;2022-07-29T08:58:14;12.32;;;3.70;;
33413;SDS011;60055;41.884;12.534;2022-07-29T09:00:45;10.70;;;2.80;;
33413;SDS011;60055;41.884;12.534;2022-07-29T09:03:18;15.77;;;7.03;;
33413;SDS011;60055;41.884;12.534;2022-07-29T09:05:45;16.52;;;5.72;;
33413;SDS011;60055;41.884;12.534;2022-07-29T09:08:15;8.52;;;3.00;;
33413;SDS011;60055;41.884;12.534;2022-07-29T09:10:42;9.40;;;2.70;;
33413;SDS011;60055;41.884;12.534;2022-07-29T09:13:08;10.23;;;2.60;;
33413;SDS011;60055;41.884;12.534;2022-07-29T09:15:34;6.93;;;2.35;;
33413;SDS011;60055;41.884;12.534;2022-07-29T09:17:59;8.10;;;2.75;;
33413;SDS011;60055;41.884;12.534;2022-07-29T09:20:25;9.85;;;2.70;;
33413;SDS011;60055;41.884;12.534;2022-07-29T09:23:11;12.70;;;2.90;;
33413;SDS011;60055;41.884;12.534;2022-07-29T09:25:41;8.52;;;3.00;;
33413;SDS011;60055;41.884;12.534;2022-07-29T09:28:07;10.45;;;2.92;;
33413;SDS011;60055;41.884;12.534;2022-07-29T09:30:50;12.90;;;2.95;;
33413;SDS011;60055;41.884;12.534;2022-07-29T09:33:17;9.10;;;2.75;;
33413;SDS011;60055;41.884;12.534;2022-07-29T09:35:44;12.05;;;2.50;;
33413;SDS011;60055;41.884;12.534;2022-07-29T09:38:11;11.10;;;2.65;;
33413;SDS011;60055;41.884;12.534;2022-07-29T09:40:37;9.70;;;2.75;;
33413;SDS011;60055;41.884;12.534;2022-07-29T09:43:12;11.68;;;3.28;;
33413;SDS011;60055;41.884;12.534;2022-07-29T09:45:38;13.77;;;2.60;;
33413;SDS011;60055;41.884;12.534;2022-07-29T09:48:14;9.85;;;3.30;;
33413;SDS011;60055;41.884;12.534;2022-07-29T09:50:43;9.15;;;3.20;;
33413;SDS011;60055;41.884;12.534;2022-07-29T09:53:10;10.60;;;2.50;;
33413;SDS011;60055;41.884;12.534;2022-07-29T09:55:51;10.05;;;2.72;;
33413;SDS011;60055;41.884;12.534;2022-07-29T09:58:17;11.75;;;2.63;;
33413;SDS011;60055;41.884;12.534;2022-07-29T10:00:45;11.38;;;3.20;;
33413;SDS011;60055;41.884;12.534;2022-07-29T10:03:12;11.20;;;5.70;;
33413;SDS011;60055;41.884;12.534;2022-07-29T10:05:38;15.45;;;3.70;;
33413;SDS011;60055;41.884;12.534;2022-07-29T10:08:05;10.88;;;2.92;;
33413;SDS011;60055;41.884;12.534;2022-07-29T10:10:37;6.97;;;2.75;;
33413;SDS011;60055;41.884;12.534;2022-07-29T10:13:05;9.93;;;2.97;;
33413;SDS011;60055;41.884;12.534;2022-07-29T10:15:36;17.80;;;8.38;;
33413;SDS011;60055;41.884;12.534;2022-07-29T10:18:05;9.20;;;3.40;;
33413;SDS011;60055;41.884;12.534;2022-07-29T10:20:32;8.82;;;2.50;;
33413;SDS011;60055;41.884;12.534;2022-07-29T10:22:58;10.23;;;2.63;;
33413;SDS011;60055;41.884;12.534;2022-07-29T10:25:24;9.00;;;2.80;;
33413;SDS011;60055;41.884;12.534;2022-07-29T10:27:51;7.90;;;2.97;;
33413;SDS011;60055;41.884;12.534;2022-07-29T10:30:18;9.05;;;2.90;;
33413;SDS011;60055;41.884;12.534;2022-07-29T10:44:01;10.32;;;3.72;;
33413;SDS011;60055;41.884;12.534;2022-07-29T10:46:37;10.18;;;2.92;;
33413;SDS011;60055;41.884;12.534;2022-07-29T10:49:11;12.05;;;3.20;;
33413;SDS011;60055;41.884;12.534;2022-07-29T11:05:13;12.25;;;4.90;;
33413;SDS011;60055;41.884;12.534;2022-07-29T11:10:50;15.75;;;4.85;;
33413;SDS011;60055;41.884;12.534;2022-07-29T11:16:20;12.20;;;3.42;;
33413;SDS011;60055;41.884;12.534;2022-07-29T11:21:40;14.38;;;5.10;;
33413;SDS011;60055;41.884;12.534;2022-07-29T11:24:12;6.82;;;2.70;;
33413;SDS011;60055;41.884;12.534;2022-07-29T11:26:38;8.65;;;2.92;;
33413;SDS011;60055;41.884;12.534;2022-07-29T11:31:44;14.32;;;6.40;;
33413;SDS011;60055;41.884;12.534;2022-07-29T11:47:22;12.10;;;3.83;;
33413;SDS011;60055;41.884;12.534;2022-07-29T11:49:48;16.75;;;3.47;;
33413;SDS011;60055;41.884;12.534;2022-07-29T11:52:18;14.98;;;3.22;;
33413;SDS011;60055;41.884;12.534;2022-07-29T11:54:47;13.90;;;3.35;;
33413;SDS011;60055;41.884;12.534;2022-07-29T11:57:17;11.02;;;3.22;;
33413;SDS011;60055;41.884;12.534;2022-07-29T11:59:45;15.40;;;2.90;;
33413;SDS011;60055;41.884;12.534;2022-07-29T12:02:12;15.18;;;3.13;;
33413;SDS011;60055;41.884;12.534;2022-07-29T12:04:52;15.00;;;3.30;;
33413;SDS011;60055;41.884;12.534;2022-07-29T12:07:29;12.45;;;3.05;;
33413;SDS011;60055;41.884;12.534;2022-07-29T12:09:57;15.50;;;3.00;;
33413;SDS011;60055;41.884;12.534;2022-07-29T12:12:23;13.23;;;3.50;;
33413;SDS011;60055;41.884;12.534;2022-07-29T12:14:49;9.13;;;3.40;;
33413;SDS011;60055;41.884;12.534;2022-07-29T12:17:33;11.02;;;3.22;;
33413;SDS011;60055;41.884;12.534;2022-07-29T12:20:03;11.82;;;3.10;;
33413;SDS011;60055;41.884;12.534;2022-07-29T12:22:34;10.27;;;2.58;;
33413;SDS011;60055;41.884;12.534;2022-07-29T12:25:08;8.38;;;2.85;;
33413;SDS011;60055;41.884;12.534;2022-07-29T12:27:37;14.15;;;3.13;;
33413;SDS011;60055;41.884;12.534;2022-07-29T12:30:07;11.75;;;3.22;;
33413;SDS011;60055;41.884;12.534;2022-07-29T12:32:42;14.20;;;3.42;;
33413;SDS011;60055;41.884;12.534;2022-07-29T12:35:13;11.55;;;3.28;;
33413;SDS011;60055;41.884;12.534;2022-07-29T12:37:41;10.57;;;2.88;;
33413;SDS011;60055;41.884;12.534;2022-07-29T12:40:09;14.35;;;3.33;;
33413;SDS011;60055;41.884;12.534;2022-07-29T12:42:37;12.85;;;3.00;;
33413;SDS011;60055;41.884;12.534;2022-07-29T12:45:04;11.93;;;4.05;;
33413;SDS011;60055;41.884;12.534;2022-07-29T12:47:31;10.43;;;3.05;;
33413;SDS011;60055;41.884;12.534;2022-07-29T12:50:12;11.63;;;2.85;;
33413;SDS011;60055;41.884;12.534;2022-07-29T12:52:43;12.75;;;2.83;;
33413;SDS011;60055;41.884;12.534;2022-07-29T12:55:10;10.82;;;2.85;;
33413;SDS011;60055;41.884;12.534;2022-07-29T12:57:54;10.23;;;3.20;;
33413;SDS011;60055;41.884;12.534;2022-07-29T13:00:23;9.60;;;2.50;;
33413;SDS011;60055;41.884;12.534;2022-07-29T13:02:56;9.27;;;2.88;;
33413;SDS011;60055;41.884;12.534;2022-07-29T13:05:22;8.52;;;2.40;;
33413;SDS011;60055;41.884;12.534;2022-07-29T13:07:49;9.45;;;2.65;;
33413;SDS011;60055;41.884;12.534;2022-07-29T13:10:16;11.70;;;2.30;;
33413;SDS011;60055;41.884;12.534;2022-07-29T13:15:33;8.95;;;2.38;;
33413;SDS011;60055;41.884;12.534;2022-07-29T13:18:00;16.95;;;2.92;;
33413;SDS011;60055;41.884;12.534;2022-07-29T13:20:27;10.45;;;2.60;;
33413;SDS011;60055;41.884;12.534;2022-07-29T13:22:57;11.90;;;2.90;;
33413;SDS011;60055;41.884;12.534;2022-07-29T13:25:28;9.52;;;2.55;;
33413;SDS011;60055;41.884;12.534;2022-07-29T13:27:55;11.00;;;2.50;;
33413;SDS011;60055;41.884;12.534;2022-07-29T13:30:21;8.45;;;2.70;;
33413;SDS011;60055;41.884;12.534;2022-07-29T13:32:48;11.90;;;2.78;;
33413;SDS011;60055;41.884;12.534;2022-07-29T13:35:14;9.05;;;2.80;;
33413;SDS011;60055;41.884;12.534;2022-07-29T13:37:40;7.63;;;2.78;;
33413;SDS011;60055;41.884;12.534;2022-07-29T13:40:06;7.80;;;2.63;;
33413;SDS011;60055;41.884;12.534;2022-07-29T13:42:33;13.90;;;2.50;;
33413;SDS011;60055;41.884;12.534;2022-07-29T13:44:59;9.13;;;2.50;;
33413;SDS011;60055;41.884;12.534;2022-07-29T13:47:25;6.70;;;2.17;;
33413;SDS011;60055;41.884;12.534;2022-07-29T13:49:52;12.27;;;2.80;;
33413;SDS011;60055;41.884;12.534;2022-07-29T13:52:18;12.65;;;2.80;;
33413;SDS011;60055;41.884;12.534;2022-07-29T13:54:44;7.57;;;2.60;;
33413;SDS011;60055;41.884;12.534;2022-07-29T13:57:10;9.60;;;2.55;;
33413;SDS011;60055;41.884;12.534;2022-07-29T13:59:37;9.82;;;2.75;;
33413;SDS011;60055;41.884;12.534;2022-07-29T14:02:04;11.55;;;2.95;;
33413;SDS011;60055;41.884;12.534;2022-07-29T14:04:30;11.63;;;2.58;;
33413;SDS011;60055;41.884;12.534;2022-07-29T14:06:56;8.77;;;2.80;;
33413;SDS011;60055;41.884;12.534;2022-07-29T14:09:22;11.57;;;2.88;;
33413;SDS011;60055;41.884;12.534;2022-07-29T14:11:47;10.18;;;3.00;;
33413;SDS011;60055;41.884;12.534;2022-07-29T14:14:15;12.25;;;2.50;;
33413;SDS011;60055;41.884;12.534;2022-07-29T14:16:40;10.93;;;2.88;;
33413;SDS011;60055;41.884;12.534;2022-07-29T14:19:06;9.10;;;2.67;;
33413;SDS011;60055;41.884;12.534;2022-07-29T14:21:32;9.10;;;2.90;;
33413;SDS011;60055;41.884;12.534;2022-07-29T14:23:57;12.50;;;2.72;;
33413;SDS011;60055;41.884;12.534;2022-07-29T14:26:23;8.00;;;2.38;;
33413;SDS011;60055;41.884;12.534;2022-07-29T14:28:49;7.32;;;2.28;;
33413;SDS011;60055;41.884;12.534;2022-07-29T14:31:15;14.80;;;2.72;;
33413;SDS011;60055;41.884;12.534;2022-07-29T14:33:41;7.82;;;2.20;;
33413;SDS011;60055;41.884;12.534;2022-07-29T14:36:07;9.20;;;3.55;;
33413;SDS011;60055;41.884;12.534;2022-07-29T14:38:34;10.60;;;3.35;;
33413;SDS011;60055;41.884;12.534;2022-07-29T14:41:00;14.20;;;2.95;;
33413;SDS011;60055;41.884;12.534;2022-07-29T14:43:26;7.85;;;2.78;;
33413;SDS011;60055;41.884;12.534;2022-07-29T14:45:52;10.75;;;2.97;;
33413;SDS011;60055;41.884;12.534;2022-07-29T14:48:17;11.52;;;2.55;;
33413;SDS011;60055;41.884;12.534;2022-07-29T14:50:43;12.77;;;3.47;;
33413;SDS011;60055;41.884;12.534;2022-07-29T14:53:09;10.85;;;3.53;;
33413;SDS011;60055;41.884;12.534;2022-07-29T14:55:34;7.88;;;2.67;;
33413;SDS011;60055;41.884;12.534;2022-07-29T14:58:00;14.75;;;2.60;;
33413;SDS011;60055;41.884;12.534;2022-07-29T15:00:26;13.63;;;3.28;;
33413;SDS011;60055;41.884;12.534;2022-07-29T15:02:52;11.25;;;3.30;;
33413;SDS011;60055;41.884;12.534;2022-07-29T15:05:18;9.30;;;2.70;;
33413;SDS011;60055;41.884;12.534;2022-07-29T15:07:43;14.68;;;3.00;;
33413;SDS011;60055;41.884;12.534;2022-07-29T15:10:09;16.75;;;3.38;;
33413;SDS011;60055;41.884;12.534;2022-07-29T15:12:35;11.57;;;2.60;;
33413;SDS011;60055;41.884;12.534;2022-07-29T15:15:03;8.63;;;2.55;;
33413;SDS011;60055;41.884;12.534;2022-07-29T15:17:29;10.95;;;2.65;;
33413;SDS011;60055;41.884;12.534;2022-07-29T15:19:57;10.40;;;3.08;;
33413;SDS011;60055;41.884;12.534;2022-07-29T15:22:23;12.40;;;2.90;;
33413;SDS011;60055;41.884;12.534;2022-07-29T15:24:49;12.70;;;2.45;;
33413;SDS011;60055;41.884;12.534;2022-07-29T15:27:14;9.60;;;2.35;;
33413;SDS011;60055;41.884;12.534;2022-07-29T15:29:40;18.17;;;3.92;;
33413;SDS011;60055;41.884;12.534;2022-07-29T15:32:06;10.07;;;3.58;;
33413;SDS011;60055;41.884;12.534;2022-07-29T15:34:32;10.65;;;3.35;;
33413;SDS011;60055;41.884;12.534;2022-07-29T15:37:00;14.25;;;3.22;;